Time;durP1;ratioP1;P1;durP2;ratioP2;P2;SDS_P1;SDS_P2;PMS_P1;PMS_P2;Temp;Humidity;BMP_temperature;BMP_pressure;BME280_temperature;BME280_humidity;BME280_pressure;Samples;Min_cycle;Max_cycle;Signal;HPM_P1;HPM_P2
2024/02/17 00:02:19;;;;;;;16.98;12.73;;;11.90;96.70;;;;;;4902599;29;20462;-66
2024/02/17 00:04:47;;;;;;;17.40;13.43;;;11.90;96.70;;;;;;4924900;29;20588;-66
2024/02/17 00:07:16;;;;;;;17.20;12.88;;;11.90;96.70;;;;;;4928348;29;20122;-66
2024/02/17 00:09:47;;;;;;;17.52;12.63;;;11.90;96.70;;;;;;4918206;29;20048;-66
2024/02/17 00:12:18;;;;;;;16.10;12.18;;;11.90;96.70;;;;;;4928535;29;20151;-66
2024/02/17 00:14:46;;;;;;;16.00;13.00;;;11.90;96.70;;;;;;4915253;29;20048;-66
2024/02/17 00:17:15;;;;;;;15.63;12.52;;;11.80;96.70;;;;;;4925128;29;20051;-67
2024/02/17 00:19:47;;;;;;;16.65;12.25;;;11.80;96.70;;;;;;4910191;29;20067;-66
2024/02/17 00:22:16;;;;;;;16.02;12.77;;;11.80;96.70;;;;;;4929053;29;20048;-66
2024/02/17 00:24:45;;;;;;;18.20;13.43;;;11.80;96.70;;;;;;4920544;29;20052;-66
2024/02/17 00:27:14;;;;;;;18.50;13.88;;;11.80;96.70;;;;;;4926375;29;20090;-66
2024/02/17 00:29:44;;;;;;;18.35;14.10;;;11.80;96.70;;;;;;4918668;29;20054;-66
2024/02/17 00:32:12;;;;;;;16.48;13.10;;;11.80;96.70;;;;;;4928711;29;20316;-66
2024/02/17 00:34:41;;;;;;;17.48;13.55;;;11.80;96.70;;;;;;4929850;29;20061;-66
2024/02/17 00:37:13;;;;;;;16.50;13.20;;;11.70;96.70;;;;;;4912004;29;20048;-66
2024/02/17 00:39:45;;;;;;;19.13;13.52;;;11.70;96.70;;;;;;4920958;29;20051;-66
2024/02/17 00:42:17;;;;;;;17.48;13.98;;;11.70;96.70;;;;;;4928945;29;20065;-66
2024/02/17 00:44:46;;;;;;;17.65;15.27;;;11.60;96.70;;;;;;4928447;29;20047;-66
2024/02/17 00:47:16;;;;;;;18.65;14.20;;;11.60;96.70;;;;;;4904510;29;20583;-66
2024/02/17 00:49:47;;;;;;;18.50;15.00;;;11.60;96.70;;;;;;4931077;29;20118;-66
2024/02/17 00:52:19;;;;;;;18.60;14.13;;;11.60;96.70;;;;;;4917750;29;20040;-66
2024/02/17 00:54:50;;;;;;;17.45;14.82;;;11.60;96.70;;;;;;4922531;29;20465;-66
2024/02/17 00:57:19;;;;;;;17.27;14.40;;;11.60;96.70;;;;;;4921155;29;20053;-66
2024/02/17 00:59:48;;;;;;;18.02;13.77;;;11.50;96.70;;;;;;4927489;29;20083;-66
2024/02/17 01:02:16;;;;;;;19.73;15.02;;;11.40;96.70;;;;;;4920620;29;20044;-67
2024/02/17 01:04:45;;;;;;;19.58;14.07;;;11.40;96.70;;;;;;4925134;29;20131;-66
2024/02/17 01:07:14;;;;;;;22.48;13.85;;;11.50;96.70;;;;;;4919628;29;20132;-66
2024/02/17 01:09:46;;;;;;;15.70;13.27;;;11.50;96.70;;;;;;4918497;29;20058;-66
2024/02/17 01:12:16;;;;;;;17.65;13.77;;;11.50;96.70;;;;;;4919427;29;20509;-66
2024/02/17 01:14:45;;;;;;;16.13;13.50;;;11.50;96.70;;;;;;4926011;29;20138;-66
2024/02/17 01:17:16;;;;;;;18.58;14.57;;;11.40;96.70;;;;;;4919017;29;20075;-67
2024/02/17 01:19:47;;;;;;;18.60;13.93;;;11.40;96.70;;;;;;4925086;29;20139;-66
2024/02/17 01:22:16;;;;;;;18.17;13.82;;;11.50;96.70;;;;;;4919709;29;20075;-66
2024/02/17 01:24:47;;;;;;;18.95;14.10;;;11.50;96.70;;;;;;4925959;29;20060;-66
2024/02/17 01:27:16;;;;;;;16.23;13.20;;;11.50;96.70;;;;;;4921834;29;20131;-66
2024/02/17 01:29:46;;;;;;;17.10;13.68;;;11.40;96.70;;;;;;4914651;29;20516;-66
2024/02/17 01:32:14;;;;;;;17.95;13.40;;;11.30;96.70;;;;;;4898763;29;20048;-66
2024/02/17 01:34:44;;;;;;;17.40;13.50;;;11.30;96.70;;;;;;4912303;29;20044;-66
2024/02/17 01:37:13;;;;;;;16.50;13.38;;;11.30;96.70;;;;;;4913699;29;20070;-66
2024/02/17 01:39:42;;;;;;;17.48;14.07;;;11.30;96.70;;;;;;4915501;29;20051;-66
2024/02/17 01:42:13;;;;;;;16.95;13.48;;;11.30;96.70;;;;;;4926728;29;20044;-66
2024/02/17 01:44:42;;;;;;;16.80;13.25;;;11.40;96.70;;;;;;4923851;29;20518;-66
2024/02/17 01:47:11;;;;;;;15.25;12.63;;;11.30;96.70;;;;;;4914829;29;20058;-66
2024/02/17 01:49:40;;;;;;;15.90;13.45;;;11.30;96.70;;;;;;4926393;29;20520;-66
2024/02/17 01:52:09;;;;;;;16.75;12.52;;;11.30;96.70;;;;;;4929016;29;20869;-65
2024/02/17 01:54:41;;;;;;;16.88;12.48;;;11.40;96.70;;;;;;4922270;29;20828;-66
2024/02/17 01:57:10;;;;;;;18.20;13.32;;;11.40;96.70;;;;;;4922790;29;20055;-66
2024/02/17 01:59:45;;;;;;;14.98;12.35;;;11.40;96.70;;;;;;4922257;29;20584;-66
2024/02/17 02:02:14;;;;;;;16.80;13.10;;;11.30;96.70;;;;;;4926833;29;20050;-66
2024/02/17 02:04:46;;;;;;;15.70;11.52;;;11.30;96.70;;;;;;4908120;29;20541;-66
2024/02/17 02:07:15;;;;;;;15.98;11.40;;;11.20;96.70;;;;;;4926627;29;20048;-66
2024/02/17 02:09:44;;;;;;;13.00;11.57;;;11.20;96.70;;;;;;4919136;29;20076;-66
2024/02/17 02:12:14;;;;;;;14.95;10.57;;;11.20;96.70;;;;;;4922695;29;20712;-66
2024/02/17 02:15:05;;;;;;;12.75;10.27;;;11.20;96.70;;;;;;4919331;29;20075;-67
2024/02/17 02:17:34;;;;;;;14.68;10.68;;;11.10;96.70;;;;;;4925547;29;20055;-66
2024/02/17 02:20:05;;;;;;;14.45;10.27;;;11.10;96.70;;;;;;4921649;29;20060;-66
2024/02/17 02:22:36;;;;;;;13.57;10.10;;;11.10;96.70;;;;;;4920948;29;20050;-66
2024/02/17 02:25:10;;;;;;;14.60;10.27;;;11.10;96.70;;;;;;4924256;29;20079;-66
2024/02/17 02:27:43;;;;;;;12.60;9.60;;;11.10;96.70;;;;;;4905758;29;20528;-66
2024/02/17 02:30:13;;;;;;;12.25;9.20;;;11.10;96.70;;;;;;4922920;29;20055;-66
2024/02/17 02:32:42;;;;;;;13.82;10.10;;;11.10;96.70;;;;;;4930195;29;20067;-66
2024/02/17 02:35:12;;;;;;;14.05;10.07;;;11.10;96.70;;;;;;4924168;29;20068;-67
2024/02/17 02:37:40;;;;;;;15.57;10.52;;;11.00;96.70;;;;;;4931398;29;20086;-66
2024/02/17 02:40:10;;;;;;;12.95;9.80;;;11.00;96.70;;;;;;4913238;29;20148;-66
2024/02/17 02:42:39;;;;;;;13.10;10.18;;;11.00;96.70;;;;;;4915751;29;20082;-66
2024/02/17 02:45:12;;;;;;;17.80;10.75;;;11.00;96.70;;;;;;4913767;29;20053;-66
2024/02/17 02:47:40;;;;;;;13.27;10.75;;;11.00;96.70;;;;;;4918994;29;20056;-66
2024/02/17 02:50:10;;;;;;;12.20;10.25;;;10.90;96.70;;;;;;4928954;29;20048;-66
2024/02/17 02:52:40;;;;;;;14.07;10.75;;;10.90;96.70;;;;;;4924432;29;20209;-66
2024/02/17 02:55:08;;;;;;;14.05;10.68;;;10.90;96.70;;;;;;4921968;29;20047;-66
2024/02/17 02:57:37;;;;;;;15.18;10.77;;;10.90;96.70;;;;;;4931618;29;20134;-66
2024/02/17 03:00:10;;;;;;;13.55;10.18;;;10.90;96.70;;;;;;4922853;29;20047;-66
2024/02/17 03:02:40;;;;;;;14.00;10.80;;;10.90;96.70;;;;;;4922668;29;20078;-66
2024/02/17 03:05:10;;;;;;;14.77;10.82;;;10.90;96.70;;;;;;4917626;29;20108;-66
2024/02/17 03:07:40;;;;;;;14.27;10.57;;;10.80;96.70;;;;;;4921071;29;20047;-66
2024/02/17 03:10:10;;;;;;;13.20;10.65;;;10.70;96.70;;;;;;4937294;29;20047;-66
2024/02/17 03:12:40;;;;;;;13.45;9.80;;;10.60;96.70;;;;;;4923066;29;20202;-66
2024/02/17 03:15:12;;;;;;;13.32;10.30;;;10.60;96.70;;;;;;4926710;29;20236;-66
2024/02/17 03:17:41;;;;;;;15.05;10.25;;;10.70;96.70;;;;;;4921667;29;20061;-65
2024/02/17 03:20:11;;;;;;;13.57;10.68;;;10.80;96.70;;;;;;4895860;29;20141;-66
2024/02/17 03:22:42;;;;;;;12.95;10.70;;;10.80;96.70;;;;;;4909754;29;20426;-66
2024/02/17 03:25:10;;;;;;;14.82;10.63;;;10.80;96.70;;;;;;4911895;29;20125;-66
2024/02/17 03:27:40;;;;;;;13.73;10.30;;;10.80;96.70;;;;;;4910963;29;20055;-66
2024/02/17 03:30:10;;;;;;;11.88;10.52;;;10.70;96.70;;;;;;4898853;29;20243;-65
2024/02/17 03:32:39;;;;;;;15.02;10.68;;;10.70;96.70;;;;;;4902779;29;20135;-66
2024/02/17 03:35:10;;;;;;;13.77;11.05;;;10.70;96.70;;;;;;4895516;29;20136;-66
2024/02/17 03:37:40;;;;;;;13.85;10.75;;;10.80;96.70;;;;;;4913367;29;21221;-65
2024/02/17 03:40:10;;;;;;;15.88;11.02;;;10.80;96.70;;;;;;4897309;29;20062;-66
2024/02/17 03:42:40;;;;;;;13.68;10.85;;;10.80;96.70;;;;;;4919109;29;20053;-66
2024/02/17 03:45:11;;;;;;;16.70;11.35;;;10.90;96.70;;;;;;4894503;29;20470;-66
2024/02/17 03:47:42;;;;;;;14.90;11.52;;;10.80;96.70;;;;;;4896856;29;20044;-66
2024/02/17 03:50:12;;;;;;;14.10;10.57;;;10.80;96.70;;;;;;4899975;29;20068;-66
2024/02/17 03:52:42;;;;;;;14.63;11.50;;;10.80;96.70;;;;;;4899160;29;20052;-65
2024/02/17 03:55:12;;;;;;;16.15;11.98;;;10.90;96.70;;;;;;4908776;29;20059;-66
2024/02/17 03:57:40;;;;;;;14.07;11.77;;;10.90;96.70;;;;;;4903339;29;20055;-66
2024/02/17 04:00:13;;;;;;;12.43;10.30;;;10.90;96.70;;;;;;4893664;29;20082;-67
2024/02/17 04:02:41;;;;;;;15.43;10.77;;;10.90;96.70;;;;;;4899173;29;20087;-66
2024/02/17 04:05:11;;;;;;;12.75;10.43;;;10.90;96.70;;;;;;4900538;29;20047;-66
2024/02/17 04:07:41;;;;;;;14.77;10.73;;;10.90;96.70;;;;;;4901101;29;20517;-67
2024/02/17 04:10:11;;;;;;;13.70;10.50;;;10.90;96.70;;;;;;4901863;29;20071;-66
2024/02/17 04:12:42;;;;;;;13.05;10.50;;;10.80;96.70;;;;;;4893154;29;20055;-66
2024/02/17 04:15:13;;;;;;;16.10;10.38;;;10.90;96.70;;;;;;4909195;29;20059;-66
2024/02/17 04:17:44;;;;;;;14.02;10.73;;;10.90;96.70;;;;;;4900940;29;20097;-66
2024/02/17 04:20:13;;;;;;;12.43;9.93;;;10.90;96.70;;;;;;4900598;29;20722;-66
2024/02/17 04:22:42;;;;;;;12.80;9.90;;;10.90;96.70;;;;;;4909051;29;20040;-66
2024/02/17 04:25:11;;;;;;;14.63;10.45;;;10.90;96.70;;;;;;4902557;29;20079;-66
2024/02/17 04:27:41;;;;;;;11.38;9.93;;;10.90;96.70;;;;;;4903201;29;20134;-66
2024/02/17 04:30:11;;;;;;;13.77;9.73;;;10.90;96.70;;;;;;4909019;29;20678;-65
2024/02/17 04:32:43;;;;;;;13.88;10.57;;;10.90;96.70;;;;;;4902590;29;20044;-66
2024/02/17 04:35:12;;;;;;;11.68;10.07;;;10.90;96.70;;;;;;4896853;29;20132;-66
2024/02/17 04:37:41;;;;;;;12.68;9.30;;;10.90;96.70;;;;;;4910418;29;20113;-66
2024/02/17 04:40:11;;;;;;;13.98;10.65;;;10.90;96.70;;;;;;4897328;29;20052;-66
2024/02/17 04:42:41;;;;;;;14.23;10.68;;;10.90;96.70;;;;;;4906674;29;20048;-66
2024/02/17 04:45:11;;;;;;;15.40;10.57;;;10.80;96.70;;;;;;4908117;29;20113;-66
2024/02/17 04:47:43;;;;;;;13.05;10.68;;;10.80;96.70;;;;;;4900907;29;20131;-66
2024/02/17 04:50:12;;;;;;;13.60;10.63;;;10.80;96.70;;;;;;4910449;29;20063;-66
2024/02/17 04:52:41;;;;;;;13.73;10.60;;;10.80;96.70;;;;;;4905969;29;20132;-65
2024/02/17 04:55:11;;;;;;;12.73;9.85;;;10.80;96.70;;;;;;4908638;29;20426;-66
2024/02/17 04:57:41;;;;;;;13.23;10.40;;;10.70;96.70;;;;;;4915583;29;20056;-65
2024/02/17 05:00:11;;;;;;;14.35;10.35;;;10.80;96.70;;;;;;4892504;29;20052;-66
2024/02/17 05:02:41;;;;;;;13.18;10.20;;;10.80;96.70;;;;;;4908767;29;21304;-66
2024/02/17 05:05:12;;;;;;;12.98;9.82;;;10.80;96.70;;;;;;4901432;29;20582;-66
2024/02/17 05:07:42;;;;;;;13.48;10.25;;;10.70;96.70;;;;;;4890910;29;20056;-66
2024/02/17 05:10:11;;;;;;;12.45;10.25;;;10.70;96.70;;;;;;4911150;29;20052;-66
2024/02/17 05:12:40;;;;;;;13.18;10.20;;;10.60;96.70;;;;;;4905095;29;20096;-66
2024/02/17 05:15:09;;;;;;;12.25;9.88;;;10.60;96.70;;;;;;4905774;29;20048;-66
2024/02/17 05:17:39;;;;;;;13.70;10.35;;;10.60;96.70;;;;;;4905874;29;20051;-66
2024/02/17 05:20:09;;;;;;;14.27;10.00;;;10.60;96.70;;;;;;4908727;29;20067;-66
2024/02/17 05:22:39;;;;;;;12.65;10.20;;;10.60;96.70;;;;;;4886606;29;20076;-66
2024/02/17 05:25:10;;;;;;;12.18;9.32;;;10.60;96.70;;;;;;4888481;29;20081;-66
2024/02/17 05:27:40;;;;;;;14.48;9.88;;;10.60;96.70;;;;;;4884953;29;20045;-66
2024/02/17 05:30:10;;;;;;;12.95;9.20;;;10.70;96.70;;;;;;4889258;29;20199;-66
2024/02/17 05:32:40;;;;;;;15.85;9.55;;;10.70;96.70;;;;;;4888104;29;20076;-66
2024/02/17 05:35:09;;;;;;;13.02;9.90;;;10.70;96.70;;;;;;4892675;29;20055;-65
2024/02/17 05:37:39;;;;;;;12.57;9.23;;;10.70;96.70;;;;;;4884654;29;20069;-66
2024/02/17 05:40:11;;;;;;;13.70;10.23;;;10.60;96.70;;;;;;4878641;29;20071;-66
2024/02/17 05:42:43;;;;;;;11.73;9.20;;;10.60;96.70;;;;;;4886135;29;20053;-66
2024/02/17 05:45:15;;;;;;;15.18;9.60;;;10.60;96.70;;;;;;4888390;29;20108;-66
2024/02/17 05:47:45;;;;;;;13.77;9.60;;;10.60;96.70;;;;;;4888109;29;20668;-66
2024/02/17 05:50:17;;;;;;;13.32;10.27;;;10.70;96.70;;;;;;4877745;29;20704;-66
2024/02/17 05:52:49;;;;;;;11.90;9.55;;;10.60;96.70;;;;;;4882104;29;20065;-66
2024/02/17 05:55:19;;;;;;;13.20;9.68;;;10.60;96.70;;;;;;4882061;29;20040;-66
2024/02/17 05:57:48;;;;;;;13.55;9.65;;;10.60;96.70;;;;;;4885209;29;20117;-66
2024/02/17 06:00:17;;;;;;;13.77;9.63;;;10.60;96.70;;;;;;4892845;29;20079;-66
2024/02/17 06:02:46;;;;;;;11.90;9.02;;;10.60;96.70;;;;;;4894417;29;20049;-66
2024/02/17 06:05:15;;;;;;;10.90;8.60;;;10.60;96.70;;;;;;4886802;29;20104;-66
2024/02/17 06:07:46;;;;;;;12.07;9.52;;;10.60;96.70;;;;;;4890630;29;20054;-66
2024/02/17 06:10:14;;;;;;;13.65;9.15;;;10.60;96.70;;;;;;4885054;29;20185;-66
2024/02/17 06:12:44;;;;;;;12.45;9.18;;;10.60;96.70;;;;;;4886537;29;20140;-66
2024/02/17 06:15:14;;;;;;;12.45;9.00;;;10.60;96.70;;;;;;4889849;29;20051;-66
2024/02/17 06:17:43;;;;;;;12.38;8.93;;;10.50;96.70;;;;;;4889513;29;20598;-66
2024/02/17 06:23:02;;;;;;;13.07;9.00;;;10.50;96.70;;;;;;4884651;29;20087;-66
2024/02/17 06:25:31;;;;;;;12.73;8.80;;;10.40;96.70;;;;;;4884466;29;20089;-66
2024/02/17 06:28:01;;;;;;;13.35;9.07;;;10.40;96.70;;;;;;4888425;29;20533;-66
2024/02/17 06:30:31;;;;;;;11.25;9.07;;;10.30;96.70;;;;;;4892992;29;20095;-66
2024/02/17 06:33:00;;;;;;;13.60;8.95;;;10.40;96.70;;;;;;4892413;29;20529;-66
2024/02/17 06:35:30;;;;;;;13.85;9.40;;;10.40;96.70;;;;;;4886754;29;20088;-66
2024/02/17 06:38:01;;;;;;;13.18;10.02;;;10.40;96.70;;;;;;4892981;29;20048;-66
2024/02/17 06:40:31;;;;;;;11.10;8.27;;;10.40;96.70;;;;;;4882064;29;20048;-66
2024/02/17 06:42:59;;;;;;;12.23;9.23;;;10.50;96.70;;;;;;4893093;29;20056;-66
2024/02/17 06:45:28;;;;;;;16.02;9.93;;;10.50;96.70;;;;;;4884066;29;20048;-66
2024/02/17 06:47:58;;;;;;;13.13;8.95;;;10.50;96.70;;;;;;4875766;29;20164;-66
2024/02/17 06:50:27;;;;;;;9.68;8.50;;;10.50;96.70;;;;;;4888449;29;20057;-66
2024/02/17 06:52:57;;;;;;;12.32;8.65;;;10.50;96.70;;;;;;4882902;29;20053;-66
2024/02/17 06:55:27;;;;;;;11.15;8.70;;;10.50;96.70;;;;;;4888707;29;20124;-66
2024/02/17 06:57:55;;;;;;;14.07;8.45;;;10.50;96.70;;;;;;4887255;29;20072;-65
2024/02/17 07:00:24;;;;;;;10.57;8.07;;;10.50;96.70;;;;;;4884345;29;20060;-65
2024/02/17 07:02:54;;;;;;;11.27;8.65;;;10.50;96.70;;;;;;4888897;29;20052;-66
2024/02/17 07:05:22;;;;;;;11.68;8.93;;;10.50;96.70;;;;;;4888338;29;20140;-66
2024/02/17 07:07:51;;;;;;;13.52;8.73;;;10.50;96.70;;;;;;4883949;29;20511;-66
2024/02/17 07:10:20;;;;;;;12.63;8.88;;;10.60;96.70;;;;;;4882827;29;20541;-65
2024/02/17 07:12:51;;;;;;;12.13;9.60;;;10.60;96.70;;;;;;4890884;29;20139;-66
2024/02/17 07:15:20;;;;;;;14.57;9.80;;;10.60;96.70;;;;;;4887449;29;20045;-66
2024/02/17 07:17:51;;;;;;;12.75;10.15;;;10.50;96.70;;;;;;4873712;29;20639;-65
2024/02/17 07:20:20;;;;;;;13.27;9.68;;;10.60;96.70;;;;;;4916278;29;20093;-65
2024/02/17 07:22:51;;;;;;;12.13;10.15;;;10.60;96.70;;;;;;4916324;29;20067;-65
2024/02/17 07:25:19;;;;;;;13.57;10.90;;;10.60;96.70;;;;;;4913395;29;20135;-65
2024/02/17 07:27:51;;;;;;;12.88;9.93;;;10.60;96.70;;;;;;4930067;29;20043;-66
2024/02/17 07:30:20;;;;;;;14.52;10.75;;;10.60;96.70;;;;;;4929654;29;20668;-66
2024/02/17 07:32:50;;;;;;;12.13;9.40;;;10.60;96.70;;;;;;4928490;29;20082;-66
2024/02/17 07:35:21;;;;;;;12.95;9.60;;;10.70;96.70;;;;;;4928932;29;20063;-66
2024/02/17 07:37:51;;;;;;;11.80;9.23;;;10.70;96.70;;;;;;4930580;29;20064;-66
2024/02/17 07:40:20;;;;;;;13.05;8.55;;;10.70;96.70;;;;;;4927914;29;20043;-66
2024/02/17 07:42:53;;;;;;;11.10;9.02;;;10.70;96.70;;;;;;4925157;29;20138;-63
2024/02/17 07:45:23;;;;;;;10.70;8.07;;;10.70;96.70;;;;;;4912779;29;20051;-66
2024/02/17 07:58:23;;;;;;;11.68;9.98;;;10.90;96.70;;;;;;4920593;29;20051;-64
2024/02/17 08:04:34;;;;;;;13.43;9.52;;;11.00;96.70;;;;;;4924343;29;20095;-65
2024/02/17 08:17:42;;;;;;;14.80;8.80;;;11.30;96.70;;;;;;4927837;29;20051;-66
2024/02/17 08:20:17;;;;;;;11.48;8.23;;;11.40;96.70;;;;;;4894970;29;20064;-66
2024/02/17 08:22:46;;;;;;;9.77;8.32;;;11.50;96.70;;;;;;4886162;29;20059;-66
2024/02/17 08:25:16;;;;;;;13.00;8.38;;;11.60;96.70;;;;;;4900133;29;20051;-65
2024/02/17 08:27:45;;;;;;;8.93;7.85;;;11.70;96.70;;;;;;4903029;29;20059;-65
2024/02/17 08:30:14;;;;;;;11.27;8.45;;;11.80;96.70;;;;;;4899571;29;20094;-65
2024/02/17 08:32:46;;;;;;;12.63;8.95;;;11.80;96.70;;;;;;4909436;29;20055;-66
2024/02/17 08:35:15;;;;;;;11.18;8.52;;;11.90;96.70;;;;;;4923160;29;20127;-66
2024/02/17 08:37:46;;;;;;;11.60;9.65;;;12.00;96.70;;;;;;4898160;29;20051;-66
2024/02/17 08:40:15;;;;;;;11.52;9.63;;;12.10;96.70;;;;;;4903403;29;20051;-66
2024/02/17 08:42:45;;;;;;;12.88;9.00;;;12.30;96.70;;;;;;4894332;29;20044;-66
2024/02/17 08:45:14;;;;;;;12.95;9.27;;;12.50;96.70;;;;;;4902923;29;20059;-66
2024/02/17 08:47:45;;;;;;;12.75;9.65;;;12.60;96.70;;;;;;4896629;29;20040;-65
2024/02/17 08:50:14;;;;;;;13.70;9.60;;;12.70;96.70;;;;;;4889720;29;20048;-65
2024/02/17 08:52:43;;;;;;;11.13;8.35;;;12.80;96.70;;;;;;4896527;29;20134;-65
2024/02/17 08:55:11;;;;;;;11.20;8.52;;;13.00;96.70;;;;;;4911536;29;20079;-65
2024/02/17 08:57:42;;;;;;;11.60;8.52;;;13.10;96.70;;;;;;4891104;29;20099;-65
2024/02/17 09:00:16;;;;;;;10.95;8.93;;;13.20;96.70;;;;;;4913506;29;20058;-65
2024/02/17 09:02:46;;;;;;;12.40;8.98;;;13.30;96.70;;;;;;4910806;29;20516;-66
2024/02/17 09:05:15;;;;;;;12.13;8.50;;;13.40;96.70;;;;;;4893357;29;20107;-66
2024/02/17 09:07:45;;;;;;;10.68;8.90;;;13.40;96.70;;;;;;4905850;29;20111;-67
2024/02/17 09:10:15;;;;;;;11.23;9.05;;;13.60;96.70;;;;;;4910602;29;20040;-67
2024/02/17 09:12:45;;;;;;;11.50;9.75;;;13.70;96.70;;;;;;4902147;29;20071;-67
2024/02/17 09:15:14;;;;;;;12.05;9.80;;;13.90;96.70;;;;;;4911609;29;20054;-66
2024/02/17 09:17:48;;;;;;;13.25;9.10;;;13.90;96.70;;;;;;4896243;29;20063;-66
2024/02/17 09:20:17;;;;;;;13.63;9.40;;;14.10;96.70;;;;;;4912317;29;20063;-66
2024/02/17 09:22:47;;;;;;;12.40;9.75;;;14.10;96.70;;;;;;4899522;29;20052;-66
2024/02/17 09:25:19;;;;;;;14.25;9.50;;;14.20;96.70;;;;;;4908124;29;20514;-65
2024/02/17 09:27:47;;;;;;;10.43;8.82;;;14.40;96.70;;;;;;4896001;29;20115;-66
2024/02/17 09:30:16;;;;;;;17.45;9.48;;;14.40;96.70;;;;;;4885633;29;20616;-65
2024/02/17 09:36:31;;;;;;;9.90;8.70;;;14.70;96.70;;;;;;4857147;29;20271;-75
2024/02/17 09:39:11;;;;;;;10.98;8.75;;;14.80;96.70;;;;;;5314845;23;20229;-90
2024/02/17 09:41:40;;;;;;;12.45;8.85;;;14.60;96.70;;;;;;4924693;29;20450;-80
2024/02/17 09:44:09;;;;;;;11.75;9.00;;;14.60;96.70;;;;;;5153036;23;21030;-69
2024/02/17 09:46:38;;;;;;;12.75;9.15;;;14.50;96.70;;;;;;4923007;29;20059;-68
2024/02/17 09:49:09;;;;;;;12.73;9.07;;;14.50;96.70;;;;;;4926084;29;20389;-66
2024/02/17 09:51:45;;;;;;;14.13;8.55;;;14.50;96.70;;;;;;4927118;29;20060;-66
2024/02/17 09:54:15;;;;;;;11.70;9.13;;;14.50;96.70;;;;;;4926827;29;20508;-66
2024/02/17 09:56:44;;;;;;;10.50;7.90;;;14.70;96.70;;;;;;4930043;29;20056;-66
2024/02/17 09:59:13;;;;;;;10.73;7.38;;;14.70;96.70;;;;;;4930720;29;20047;-66
2024/02/17 10:01:42;;;;;;;11.02;7.50;;;14.80;96.70;;;;;;4911222;29;20499;-66
2024/02/17 10:04:12;;;;;;;9.90;7.80;;;14.90;96.70;;;;;;4930751;29;20055;-66
2024/02/17 10:06:42;;;;;;;12.63;7.93;;;14.90;96.70;;;;;;4930301;29;20063;-66
2024/02/17 10:09:19;;;;;;;11.35;8.63;;;14.90;96.70;;;;;;4929358;29;20059;-66
2024/02/17 10:11:47;;;;;;;10.02;7.68;;;14.80;96.70;;;;;;4929895;29;20056;-66
2024/02/17 10:14:22;;;;;;;10.52;7.45;;;15.00;96.70;;;;;;4945792;28;20039;-66
2024/02/17 10:16:58;;;;;;;9.70;7.47;;;15.10;96.70;;;;;;4921704;29;20055;-66
2024/02/17 10:19:30;;;;;;;9.30;7.05;;;15.30;96.70;;;;;;4945143;29;20432;-66
2024/02/17 10:21:59;;;;;;;10.13;7.15;;;15.40;96.70;;;;;;4946312;28;20058;-67
2024/02/17 10:24:28;;;;;;;16.48;11.70;;;15.50;96.70;;;;;;4930013;29;20040;-66
2024/02/17 10:26:59;;;;;;;9.73;8.15;;;15.60;96.70;;;;;;4927737;29;20051;-70
2024/02/17 10:29:31;;;;;;;11.35;8.30;;;15.70;96.70;;;;;;4930263;29;20571;-70
2024/02/17 10:32:54;;;;;;;10.80;8.68;;;15.70;96.70;;;;;;4929652;29;20056;-65
2024/02/17 10:35:26;;;;;;;12.38;8.60;;;15.80;96.70;;;;;;4873428;29;20073;-65
2024/02/17 10:38:28;;;;;;;11.00;7.85;;;16.00;96.70;;;;;;4871770;29;20104;-65
2024/02/17 10:40:59;;;;;;;20.95;14.57;;;16.10;96.70;;;;;;4816255;29;20061;-65
2024/02/17 10:43:27;;;;;;;10.93;8.60;;;16.20;96.70;;;;;;4819479;29;20154;-66
2024/02/17 10:49:27;;;;;;;11.70;8.10;;;16.10;96.70;;;;;;4832464;29;20049;-65
2024/02/17 10:52:05;;;;;;;11.13;8.07;;;16.20;96.70;;;;;;4811566;29;20065;-66
2024/02/17 10:54:46;;;;;;;10.43;8.20;;;16.30;96.70;;;;;;4835143;29;20074;-65
2024/02/17 10:57:19;;;;;;;11.60;8.23;;;16.40;96.70;;;;;;4834648;29;20061;-64
2024/02/17 10:59:54;;;;;;;13.60;9.40;;;16.60;96.70;;;;;;4837955;29;20091;-65
2024/02/17 11:02:26;;;;;;;14.52;10.80;;;16.70;96.70;;;;;;4875561;29;20429;-65
2024/02/17 11:04:56;;;;;;;10.80;9.23;;;16.70;96.70;;;;;;4891618;29;20075;-65
2024/02/17 11:07:26;;;;;;;11.82;9.70;;;16.80;96.70;;;;;;4927606;29;20568;-65
2024/02/17 11:10:03;;;;;;;12.95;10.77;;;16.80;96.70;;;;;;4928670;29;20139;-65
2024/02/17 11:12:33;;;;;;;12.90;10.70;;;16.80;96.70;;;;;;4944445;29;20401;-64
2024/02/17 11:15:05;;;;;;;16.55;11.65;;;16.80;96.70;;;;;;4927777;29;20204;-66
2024/02/17 11:17:36;;;;;;;16.08;11.98;;;16.90;96.70;;;;;;4928681;29;20060;-66
2024/02/17 11:20:08;;;;;;;16.05;12.38;;;16.90;96.70;;;;;;4929762;29;20062;-65
2024/02/17 11:22:40;;;;;;;17.65;12.20;;;17.00;96.70;;;;;;4929423;29;20109;-66
2024/02/17 11:25:29;;;;;;;18.70;13.48;;;17.10;96.70;;;;;;4928460;29;20055;-66
2024/02/17 11:27:58;;;;;;;17.33;14.07;;;17.20;96.70;;;;;;4928324;29;20094;-66
2024/02/17 11:30:27;;;;;;;18.17;13.38;;;17.30;96.70;;;;;;4928785;29;20056;-65
2024/02/17 11:32:57;;;;;;;18.90;13.90;;;17.30;96.70;;;;;;4929194;29;20052;-66
2024/02/17 11:35:27;;;;;;;15.70;11.25;;;17.50;96.70;;;;;;4944946;29;20146;-64
2024/02/17 11:37:58;;;;;;;11.55;9.38;;;17.50;96.70;;;;;;4914782;29;20070;-65
2024/02/17 11:40:26;;;;;;;13.02;9.38;;;17.50;96.70;;;;;;4931139;28;20062;-66
2024/02/17 11:42:55;;;;;;;15.18;11.10;;;17.40;96.70;;;;;;4928306;29;20051;-66
2024/02/17 11:45:25;;;;;;;14.38;11.38;;;17.30;96.70;;;;;;4923271;29;20051;-65
2024/02/17 11:47:57;;;;;;;15.75;11.65;;;17.30;96.70;;;;;;4944474;29;20051;-66
2024/02/17 11:50:28;;;;;;;16.95;12.45;;;17.20;96.70;;;;;;4944049;29;20051;-65
2024/02/17 11:53:01;;;;;;;14.77;11.90;;;17.40;96.70;;;;;;4944775;29;20060;-66
2024/02/17 11:55:30;;;;;;;18.38;12.43;;;17.60;96.70;;;;;;4913119;29;20143;-66
2024/02/17 11:58:02;;;;;;;15.65;12.43;;;17.90;96.70;;;;;;4928946;29;20055;-66
2024/02/17 12:00:34;;;;;;;15.18;11.15;;;18.10;96.70;;;;;;4926689;29;20087;-66
2024/02/17 12:03:05;;;;;;;13.88;10.07;;;18.20;96.70;;;;;;4911206;29;20059;-67
2024/02/17 12:05:36;;;;;;;12.63;9.88;;;18.30;96.70;;;;;;4909992;29;20481;-64
2024/02/17 12:08:10;;;;;;;13.05;10.02;;;18.30;96.70;;;;;;4895917;29;20126;-66
2024/02/17 12:10:39;;;;;;;14.25;9.68;;;18.40;96.70;;;;;;4911825;29;20206;-65
2024/02/17 12:13:07;;;;;;;10.40;7.90;;;18.50;96.70;;;;;;4916327;29;20465;-66
2024/02/17 12:15:37;;;;;;;5.97;4.25;;;18.70;96.70;;;;;;4901242;29;20131;-66
2024/02/17 12:18:12;;;;;;;7.18;5.25;;;19.00;96.70;;;;;;4901455;29;20059;-66
2024/02/17 12:20:42;;;;;;;6.05;3.35;;;19.20;96.70;;;;;;4903629;29;20151;-66
2024/02/17 12:23:13;;;;;;;4.80;3.50;;;19.30;96.70;;;;;;4918064;29;20056;-67
2024/02/17 12:25:43;;;;;;;4.30;3.28;;;19.50;96.70;;;;;;4903847;29;21018;-66
2024/02/17 12:28:13;;;;;;;6.28;3.67;;;19.60;96.70;;;;;;4909182;29;20060;-67
2024/02/17 12:30:47;;;;;;;4.20;2.75;;;19.70;96.70;;;;;;4895469;29;20056;-67
2024/02/17 12:33:19;;;;;;;10.73;3.97;;;19.70;96.70;;;;;;4918133;29;20226;-66
2024/02/17 12:35:49;;;;;;;3.72;2.63;;;19.80;96.70;;;;;;4921941;29;20059;-67
2024/02/17 12:38:23;;;;;;;4.20;2.53;;;19.80;96.70;;;;;;4900633;29;20044;-68
2024/02/17 12:40:52;;;;;;;3.97;2.70;;;19.90;96.70;;;;;;4921403;29;20051;-68
2024/02/17 12:43:28;;;;;;;5.47;3.80;;;20.00;96.70;;;;;;4927734;28;20059;-68
2024/02/17 12:46:19;;;;;;;4.68;3.72;;;20.00;96.70;;;;;;4918481;29;20055;-68
2024/02/17 12:48:49;;;;;;;4.43;3.17;;;20.20;96.70;;;;;;4920299;29;20077;-68
2024/02/17 12:51:20;;;;;;;3.55;2.78;;;20.30;96.70;;;;;;4927506;29;20079;-68
2024/02/17 12:53:54;;;;;;;3.00;2.40;;;20.40;96.70;;;;;;4939512;29;20051;-66
2024/02/17 12:56:26;;;;;;;5.00;3.95;;;20.50;96.70;;;;;;4927863;29;20063;-68
2024/02/17 12:58:55;;;;;;;4.07;2.72;;;20.50;96.70;;;;;;4927541;29;20103;-68
2024/02/17 13:01:23;;;;;;;2.30;1.90;;;20.50;96.70;;;;;;4927628;29;20059;-68
2024/02/17 13:03:52;;;;;;;2.08;1.67;;;20.60;96.70;;;;;;4925323;29;20048;-68
2024/02/17 13:06:20;;;;;;;3.03;1.70;;;20.70;96.70;;;;;;4916291;29;20044;-67
2024/02/17 13:08:49;;;;;;;4.00;2.03;;;20.80;96.70;;;;;;4923409;29;20039;-67
2024/02/17 13:11:24;;;;;;;3.95;2.35;;;20.90;96.70;;;;;;4927405;29;20454;-68
2024/02/17 13:13:54;;;;;;;1.75;1.27;;;20.90;96.70;;;;;;4930356;29;20129;-68
2024/02/17 13:16:22;;;;;;;2.42;1.80;;;20.90;96.70;;;;;;4934142;29;20044;-68
2024/02/17 13:18:54;;;;;;;2.58;1.67;;;20.90;96.70;;;;;;4935506;29;20576;-68
2024/02/17 13:21:24;;;;;;;2.45;1.60;;;20.90;96.70;;;;;;4928337;28;20147;-68
2024/02/17 13:23:53;;;;;;;2.00;1.58;;;20.80;96.70;;;;;;4927518;29;20504;-68
2024/02/17 13:26:24;;;;;;;2.22;1.65;;;20.80;96.70;;;;;;4927398;29;20114;-68